Aérodrome :
LOGIN :

S'inscrire | Disclaimer

   EN    FR    IT 

 










Légende :    VFR   VFR Marginal   IFR   IFR Intensif   IFR Très Intensif
Visi : 
Plafond : 
>= 8 km
>= 3000ft
5 à 8 km
1000 à 3000 ft
1500m à 5 km
500 à 1000 ft
800 à 1500m
200 à 500 ft
< 800m
< 200 ft
Symboles :   Orages  Brouillard  Fortes neiges  Fortes précipitations  Vent > 20 kt
SIGMETs :   Divers  Orages  Givrage  Turbulence  Onde Orograph.  Cendres Volcan.







- Altitude de l'aérodrome : 909 ft
- Code IATA : KSF


EDVK - Kassel Calden

DERNIER METAR :
  • 161520Z 26011KT 9999 BKN046 03/M01 Q0992

METARs EXPIRÉS :
  • 161450Z 26011KT 220V290 9999 SCT024 BKN045 03/M00 Q0992
  • 161420Z 27010KT 9999 BKN023 03/00 Q0992
  • 161350Z 28014KT 9999 BKN023 03/00 Q0991
  • 161320Z 28020KT 9999 BKN019 BKN027 03/01 Q0991
  • 161250Z 27015KT 9999 SCT012 BKN018 03/01 Q0991

TAF TAF EDVK
Valide du 16 à 15h jusqu'au 17 à 00h UTC


161400Z 1615/1624 26012KT 9999 SCT025
TEMPO 1615/1624 27015G30KT SHRASN BKN012 BKN020CB
PROB30
TEMPO 1620/1624 2000 SHSN BKN004 BKN015CB
Pas de NOTAMs connus pour ce terrain.



MET'MAP, la Météo Aéronautique d'un coup d'oeil ! - Copyright ORBIFLY Décembre 2007 - Disclaimer

ORBIFLY MET'MAP TEAM :

Programmation & Développement : Alexandra Zaïnal
Conception & Développement : Baudouin d'Aumeries
Co-Programmation & Développement : Marc-Olivier Méhu
Soutien technique & logistique : Manuel Goepfert

Contact : metmap@orbifly.com




SOURCES & CREDITS :

   NOAA